TimeCDT,TemperatureF,Dew PointF,Humidity,Sea Level PressureIn,VisibilityMPH,Wind Direction,Wind SpeedMPH,Gust SpeedMPH,PrecipitationIn,Events,Conditions,WindDirDegrees,DateUTC
12:53 AM,61.0,57.9,90,30.16,10.0,SSE,3.5,-,N/A,,Mostly Cloudy,150,2013-03-29 05:53:00
1:53 AM,62.1,57.9,86,30.15,10.0,Calm,Calm,-,N/A,,Overcast,0,2013-03-29 06:53:00
2:53 AM,61.0,57.9,90,30.14,10.0,SE,3.5,-,N/A,,Overcast,140,2013-03-29 07:53:00
3:53 AM,61.0,57.9,90,30.13,10.0,SSE,3.5,-,N/A,,Overcast,150,2013-03-29 08:53:00
4:53 AM,59.0,57.9,96,30.11,10.0,SE,5.8,-,N/A,,Mostly Cloudy,130,2013-03-29 09:53:00
5:53 AM,59.0,57.9,96,30.11,10.0,East,3.5,-,N/A,,Mostly Cloudy,90,2013-03-29 10:53:00
6:53 AM,57.0,55.9,96,30.12,7.0,Calm,Calm,-,N/A,,Mostly Cloudy,0,2013-03-29 11:53:00
7:04 AM,55.4,55.4,100,30.14,5.0,Calm,Calm,-,N/A,,Overcast,0,2013-03-29 12:04:00
7:14 AM,57.2,57.2,100,30.14,7.0,Calm,Calm,-,N/A,,Overcast,0,2013-03-29 12:14:00
7:24 AM,57.2,57.2,100,30.14,7.0,ESE,3.5,-,N/A,,Overcast,110,2013-03-29 12:24:00
7:53 AM,59.0,57.9,96,30.14,6.0,SE,3.5,-,N/A,,Overcast,140,2013-03-29 12:53:00
8:53 AM,62.1,59.0,90,30.14,10.0,SSE,8.1,-,N/A,,Mostly Cloudy,150,2013-03-29 13:53:00
9:18 AM,64.4,59.0,83,30.15,10.0,SE,8.1,-,N/A,,Partly Cloudy,140,2013-03-29 14:18:00
9:48 AM,69.8,59.0,68,30.15,10.0,SSE,12.7,-,N/A,,Mostly Cloudy,160,2013-03-29 14:48:00
9:53 AM,68.0,59.0,73,30.14,10.0,South,10.4,-,N/A,,Mostly Cloudy,180,2013-03-29 14:53:00
10:53 AM,71.1,59.0,66,30.14,10.0,SSE,12.7,-,N/A,,Mostly Cloudy,160,2013-03-29 15:53:00
11:10 AM,73.4,57.2,57,30.16,10.0,SSE,12.7,19.6,N/A,,Scattered Clouds,160,2013-03-29 16:10:00
11:53 AM,73.9,57.0,55,30.14,10.0,South,12.7,-,N/A,,Overcast,180,2013-03-29 16:53:00
12:53 PM,77.0,55.0,47,30.11,10.0,South,12.7,20.7,N/A,,Overcast,170,2013-03-29 17:53:00
1:53 PM,75.9,54.0,46,30.09,10.0,South,15.0,-,N/A,,Overcast,180,2013-03-29 18:53:00
2:53 PM,75.9,55.0,48,30.06,10.0,SSE,12.7,-,N/A,,Overcast,160,2013-03-29 19:53:00
3:53 PM,78.1,54.0,43,30.04,10.0,South,10.4,19.6,N/A,,Overcast,170,2013-03-29 20:53:00
4:53 PM,79.0,53.1,40,30.01,10.0,SSE,11.5,20.7,N/A,,Overcast,150,2013-03-29 21:53:00
5:53 PM,77.0,55.0,47,30.02,10.0,SSE,13.8,-,N/A,,Overcast,150,2013-03-29 22:53:00
6:53 PM,75.0,57.0,53,30.02,10.0,SE,9.2,-,N/A,,Partly Cloudy,140,2013-03-29 23:53:00
7:53 PM,73.9,57.9,57,30.03,10.0,SSE,9.2,-,N/A,,Clear,150,2013-03-30 00:53:00
8:53 PM,72.0,57.0,59,30.04,10.0,SE,10.4,-,N/A,,Clear,140,2013-03-30 01:53:00
9:53 PM,70.0,59.0,68,30.05,10.0,SE,11.5,-,N/A,,Clear,130,2013-03-30 02:53:00
10:53 PM,68.0,61.0,78,30.06,10.0,SE,13.8,20.7,N/A,,Clear,140,2013-03-30 03:53:00
11:53 PM,66.9,61.0,81,30.07,10.0,SE,10.4,-,N/A,,Partly Cloudy,140,2013-03-30 04:53:00